Time;durP1;ratioP1;P1;durP2;ratioP2;P2;SDS_P1;SDS_P2;PMS_P1;PMS_P2;Temp;Humidity;BMP_temperature;BMP_pressure;BME280_temperature;BME280_humidity;BME280_pressure;Samples;Min_cycle;Max_cycle;Signal;HPM_P1;HPM_P2
2023/09/09 00:01:05;;;;;;;0.60;0.60;;;15.80;99.90;;;;;;5072135;28;20185;-71
2023/09/09 00:03:31;;;;;;;1.08;1.00;;;15.80;99.90;;;;;;5053870;28;20715;-71
2023/09/09 00:05:57;;;;;;;0.77;0.77;;;15.80;99.90;;;;;;5072181;28;20228;-71
2023/09/09 00:08:24;;;;;;;0.60;0.60;;;15.80;99.90;;;;;;5071978;28;20592;-71
2023/09/09 00:10:50;;;;;;;1.05;0.75;;;15.80;99.90;;;;;;5072028;28;20200;-71
2023/09/09 00:13:16;;;;;;;4.03;1.40;;;15.70;99.90;;;;;;5053752;28;20540;-71
2023/09/09 00:15:42;;;;;;;1.42;1.13;;;15.70;99.90;;;;;;5071892;28;20197;-71
2023/09/09 00:18:07;;;;;;;0.88;0.80;;;15.70;99.90;;;;;;5071915;28;20213;-71
2023/09/09 00:20:39;;;;;;;0.55;0.55;;;15.70;99.90;;;;;;5053676;28;20207;-71
2023/09/09 00:23:07;;;;;;;0.68;0.68;;;15.70;99.90;;;;;;5071884;28;20648;-71
2023/09/09 00:25:34;;;;;;;0.52;0.52;;;15.70;99.90;;;;;;5071495;28;20236;-71
2023/09/09 00:28:00;;;;;;;0.80;0.80;;;15.70;99.90;;;;;;5072085;28;20215;-71
2023/09/09 00:30:26;;;;;;;0.75;0.65;;;15.70;99.90;;;;;;5070922;28;20227;-71
2023/09/09 00:32:51;;;;;;;0.77;0.75;;;15.70;99.90;;;;;;5071739;28;20648;-72
2023/09/09 00:35:17;;;;;;;1.27;0.95;;;15.70;99.90;;;;;;5071715;28;20712;-72
2023/09/09 00:37:42;;;;;;;1.13;1.10;;;15.70;99.90;;;;;;5071247;28;20307;-72
2023/09/09 00:40:08;;;;;;;3.25;1.50;;;15.70;99.90;;;;;;5071718;28;20188;-71
2023/09/09 00:42:34;;;;;;;0.65;0.65;;;15.70;99.90;;;;;;5071732;28;20188;-72
2023/09/09 00:45:00;;;;;;;0.60;0.60;;;15.70;99.90;;;;;;5053682;28;20197;-72
2023/09/09 00:47:26;;;;;;;0.43;0.43;;;15.70;99.90;;;;;;5071259;28;20211;-72
2023/09/09 00:49:51;;;;;;;0.68;0.68;;;15.80;99.90;;;;;;5071790;28;20221;-71
2023/09/09 00:52:17;;;;;;;0.65;0.65;;;15.80;99.90;;;;;;5053655;28;20233;-72
2023/09/09 00:54:43;;;;;;;0.88;0.70;;;15.80;99.90;;;;;;5071517;28;20189;-72
2023/09/09 00:57:11;;;;;;;0.43;0.43;;;15.80;99.90;;;;;;5071609;28;20558;-71
2023/09/09 00:59:38;;;;;;;2.35;1.42;;;15.80;99.90;;;;;;5071524;28;20592;-71
2023/09/09 01:02:04;;;;;;;0.65;0.65;;;15.80;99.90;;;;;;5071063;28;20254;-71
2023/09/09 01:04:30;;;;;;;0.60;0.55;;;15.80;99.90;;;;;;5070817;28;20232;-71
2023/09/09 01:07:00;;;;;;;0.73;0.73;;;15.80;99.90;;;;;;5071349;28;20196;-71
2023/09/09 01:09:25;;;;;;;0.57;0.57;;;15.80;99.90;;;;;;5071285;28;20189;-72
2023/09/09 01:11:52;;;;;;;1.60;1.10;;;15.80;99.90;;;;;;5071400;28;20679;-70
2023/09/09 01:14:17;;;;;;;0.80;0.80;;;15.80;99.90;;;;;;5071474;28;20215;-70
2023/09/09 01:16:43;;;;;;;0.85;0.85;;;15.80;99.90;;;;;;5070945;28;20197;-71
2023/09/09 01:19:12;;;;;;;0.80;0.80;;;15.80;99.90;;;;;;5053129;28;20213;-71
2023/09/09 01:21:41;;;;;;;1.13;0.60;;;15.80;99.90;;;;;;5071162;28;20193;-71
2023/09/09 01:24:07;;;;;;;1.45;1.35;;;15.80;99.90;;;;;;5070873;28;20189;-71
2023/09/09 01:26:33;;;;;;;1.15;1.08;;;15.80;99.90;;;;;;5071152;28;20625;-71
2023/09/09 01:28:58;;;;;;;0.73;0.73;;;15.80;99.90;;;;;;5053615;28;20197;-71
2023/09/09 01:31:24;;;;;;;0.60;0.60;;;15.80;99.90;;;;;;5053336;28;20197;-71
2023/09/09 01:33:52;;;;;;;0.93;0.82;;;15.80;99.90;;;;;;5053153;28;20258;-71
2023/09/09 01:36:17;;;;;;;0.77;0.77;;;15.70;99.90;;;;;;5071381;28;20643;-70
2023/09/09 01:38:43;;;;;;;1.25;1.13;;;15.70;99.90;;;;;;5071219;28;20338;-71
2023/09/09 01:41:09;;;;;;;3.53;1.67;;;15.70;99.90;;;;;;5072975;28;20221;-70
2023/09/09 01:43:35;;;;;;;0.77;0.77;;;15.70;99.90;;;;;;5056399;28;20257;-70
2023/09/09 01:46:01;;;;;;;1.40;0.80;;;15.60;99.90;;;;;;5074990;28;20645;-71
2023/09/09 01:48:26;;;;;;;1.30;0.88;;;15.70;99.90;;;;;;5074678;28;20741;-70
2023/09/09 01:50:52;;;;;;;0.82;0.68;;;15.60;99.90;;;;;;5056782;28;20223;-71
2023/09/09 01:53:18;;;;;;;0.30;0.30;;;15.60;99.90;;;;;;5074678;28;20575;-71
2023/09/09 01:55:43;;;;;;;0.73;0.73;;;15.60;99.90;;;;;;5074632;28;20193;-69
2023/09/09 01:58:09;;;;;;;0.65;0.65;;;15.60;99.90;;;;;;5074447;28;20208;-70
2023/09/09 02:00:34;;;;;;;0.60;0.60;;;15.60;99.90;;;;;;5074382;28;20532;-70
2023/09/09 02:03:00;;;;;;;0.43;0.43;;;15.60;99.90;;;;;;5074648;28;20550;-70
2023/09/09 02:05:26;;;;;;;0.43;0.43;;;15.60;99.90;;;;;;5052876;28;20264;-71
2023/09/09 02:07:51;;;;;;;2.30;1.30;;;15.60;99.90;;;;;;5054678;28;20237;-71
2023/09/09 02:10:18;;;;;;;0.45;0.45;;;15.60;99.90;;;;;;5054560;28;20244;-72
2023/09/09 02:12:43;;;;;;;1.33;0.90;;;15.50;99.90;;;;;;5054179;28;20272;-72
2023/09/09 02:15:11;;;;;;;1.02;0.93;;;15.50;99.90;;;;;;5054583;28;20256;-72
2023/09/09 02:17:36;;;;;;;0.52;0.52;;;15.50;99.90;;;;;;5052889;28;20197;-72
2023/09/09 02:20:05;;;;;;;0.68;0.60;;;15.50;99.90;;;;;;5054369;28;20606;-72
2023/09/09 02:22:30;;;;;;;0.60;0.60;;;15.50;99.90;;;;;;5054134;28;20228;-72
2023/09/09 02:24:56;;;;;;;0.65;0.65;;;15.50;99.90;;;;;;5054072;28;20228;-71
2023/09/09 02:27:23;;;;;;;0.30;0.30;;;15.50;99.90;;;;;;5054106;28;20251;-72
2023/09/09 02:29:48;;;;;;;0.57;0.57;;;15.40;99.90;;;;;;5054183;28;20201;-71
2023/09/09 02:32:15;;;;;;;0.65;0.65;;;15.40;99.90;;;;;;5052806;28;20246;-71
2023/09/09 02:34:41;;;;;;;0.55;0.55;;;15.50;99.90;;;;;;5054075;28;20193;-71
2023/09/09 02:37:17;;;;;;;0.52;0.52;;;15.40;99.90;;;;;;5054069;28;20564;-71
2023/09/09 02:39:50;;;;;;;0.55;0.55;;;15.40;99.90;;;;;;5052229;28;20215;-71
2023/09/09 02:42:18;;;;;;;0.57;0.57;;;15.40;99.90;;;;;;5053992;28;20555;-71
2023/09/09 02:44:44;;;;;;;0.43;0.43;;;15.40;99.90;;;;;;5054010;28;20668;-71
2023/09/09 02:47:12;;;;;;;1.65;0.75;;;15.40;99.90;;;;;;5053706;28;20190;-71
2023/09/09 02:49:38;;;;;;;0.40;0.40;;;15.40;99.90;;;;;;5053671;28;20925;-70
2023/09/09 02:52:05;;;;;;;1.02;1.02;;;15.40;99.90;;;;;;5052833;28;20258;-71
2023/09/09 02:54:30;;;;;;;3.38;0.77;;;15.40;99.90;;;;;;5053574;28;20223;-71
2023/09/09 02:56:56;;;;;;;0.50;0.50;;;15.40;99.90;;;;;;5052214;28;20683;-71
2023/09/09 02:59:23;;;;;;;0.80;0.68;;;15.40;99.90;;;;;;5053121;28;20221;-71
2023/09/09 03:01:49;;;;;;;0.68;0.68;;;15.30;99.90;;;;;;5052688;28;20582;-71
2023/09/09 03:04:15;;;;;;;0.60;0.60;;;15.30;99.90;;;;;;5052989;28;20287;-72
2023/09/09 03:06:41;;;;;;;0.60;0.60;;;15.30;99.90;;;;;;5053338;28;20197;-71
2023/09/09 03:09:06;;;;;;;0.68;0.68;;;15.30;99.90;;;;;;5048178;28;20203;-71
2023/09/09 03:11:32;;;;;;;0.68;0.60;;;15.30;99.90;;;;;;5053156;28;20284;-72
2023/09/09 03:13:59;;;;;;;0.60;0.60;;;15.30;99.90;;;;;;5053396;28;20202;-71
2023/09/09 03:16:24;;;;;;;0.32;0.32;;;15.30;99.90;;;;;;5052969;28;20193;-74
2023/09/09 03:18:50;;;;;;;0.60;0.60;;;15.20;99.90;;;;;;5051823;28;20209;-71
2023/09/09 03:21:16;;;;;;;0.43;0.43;;;15.20;99.90;;;;;;5053077;28;20281;-71
2023/09/09 03:23:42;;;;;;;0.60;0.60;;;15.20;99.90;;;;;;5052608;28;20583;-70
2023/09/09 03:26:09;;;;;;;0.70;0.70;;;15.20;99.90;;;;;;5053049;28;20208;-71
2023/09/09 03:28:35;;;;;;;0.38;0.38;;;15.20;99.90;;;;;;5052944;28;20201;-71
2023/09/09 03:31:01;;;;;;;0.52;0.52;;;15.20;99.90;;;;;;5052904;28;20189;-71
2023/09/09 03:33:27;;;;;;;0.50;0.50;;;15.20;99.90;;;;;;5052635;28;20189;-71
2023/09/09 03:35:53;;;;;;;1.38;0.93;;;15.20;99.90;;;;;;5052503;28;20214;-71
2023/09/09 03:38:19;;;;;;;1.38;0.40;;;15.20;99.90;;;;;;5052800;28;20217;-72
2023/09/09 03:40:47;;;;;;;0.50;0.50;;;15.20;99.90;;;;;;5052661;28;20221;-71
2023/09/09 03:43:12;;;;;;;0.45;0.45;;;15.10;99.90;;;;;;5052900;28;20713;-72
2023/09/09 03:45:38;;;;;;;0.50;0.50;;;15.10;99.90;;;;;;5052661;28;20277;-72
2023/09/09 03:48:04;;;;;;;0.95;0.95;;;15.10;99.90;;;;;;5052538;28;20200;-72
2023/09/09 03:50:31;;;;;;;0.40;0.40;;;15.10;99.90;;;;;;5052553;28;20247;-71
2023/09/09 03:52:57;;;;;;;0.70;0.70;;;15.20;99.90;;;;;;5052475;28;20217;-71
2023/09/09 03:55:23;;;;;;;0.47;0.47;;;15.10;99.90;;;;;;5052336;28;20233;-71
2023/09/09 03:57:48;;;;;;;0.88;0.88;;;15.20;99.90;;;;;;5052183;28;20243;-71
2023/09/09 04:00:14;;;;;;;0.52;0.52;;;15.20;99.90;;;;;;5051071;28;20200;-71
2023/09/09 04:02:40;;;;;;;0.60;0.60;;;15.20;99.90;;;;;;5050756;28;20236;-70
2023/09/09 04:05:07;;;;;;;0.30;0.30;;;15.20;99.90;;;;;;5067036;28;20256;-71
2023/09/09 04:07:35;;;;;;;0.60;0.60;;;15.20;99.90;;;;;;5072177;28;20189;-70
2023/09/09 04:10:05;;;;;;;0.63;0.63;;;15.20;99.90;;;;;;5072229;28;20184;-70
2023/09/09 04:12:31;;;;;;;0.60;0.60;;;15.30;99.90;;;;;;5072150;28;20228;-70
2023/09/09 04:14:57;;;;;;;0.63;0.63;;;15.30;99.90;;;;;;5072076;28;20258;-71
2023/09/09 04:17:22;;;;;;;0.60;0.60;;;15.30;99.90;;;;;;5071960;28;20193;-71
2023/09/09 04:19:48;;;;;;;2.50;0.85;;;15.30;99.90;;;;;;5072080;28;20208;-71
2023/09/09 04:22:14;;;;;;;0.68;0.68;;;15.30;99.90;;;;;;5072155;28;20666;-70
2023/09/09 04:24:39;;;;;;;0.77;0.77;;;15.30;99.90;;;;;;5071871;28;20200;-70
2023/09/09 04:27:05;;;;;;;1.65;1.15;;;15.30;99.90;;;;;;5072058;28;20213;-71
2023/09/09 04:29:31;;;;;;;0.60;0.60;;;15.40;99.90;;;;;;5071884;28;20658;-71
2023/09/09 04:31:57;;;;;;;0.60;0.60;;;15.40;99.90;;;;;;5053703;28;20228;-70
2023/09/09 04:34:23;;;;;;;0.70;0.70;;;15.40;99.90;;;;;;5071741;28;20254;-71
2023/09/09 04:36:49;;;;;;;0.68;0.68;;;15.40;99.90;;;;;;5072119;28;20563;-71
2023/09/09 04:39:15;;;;;;;0.77;0.77;;;15.40;99.90;;;;;;5053925;28;20221;-71
2023/09/09 04:41:41;;;;;;;0.80;0.80;;;15.40;99.90;;;;;;5071679;28;20219;-71
2023/09/09 04:44:08;;;;;;;0.80;0.80;;;15.40;99.90;;;;;;5072210;28;20551;-70
2023/09/09 04:46:33;;;;;;;0.82;0.82;;;15.40;99.90;;;;;;5053840;28;20755;-71
2023/09/09 04:48:59;;;;;;;1.17;0.70;;;15.40;99.90;;;;;;5071929;28;20177;-71
2023/09/09 04:51:25;;;;;;;1.05;0.73;;;15.40;99.90;;;;;;5071799;28;20501;-71
2023/09/09 04:53:50;;;;;;;1.30;0.93;;;15.40;99.90;;;;;;5071698;28;20236;-71
2023/09/09 04:56:16;;;;;;;1.00;1.00;;;15.40;99.90;;;;;;5053731;28;20201;-71
2023/09/09 04:58:42;;;;;;;0.50;0.50;;;15.40;99.90;;;;;;5071440;28;20716;-71
2023/09/09 05:01:09;;;;;;;1.95;0.88;;;15.50;99.90;;;;;;5071521;28;20247;-71
2023/09/09 05:03:35;;;;;;;0.70;0.70;;;15.50;99.90;;;;;;5053429;28;20251;-71
2023/09/09 05:06:01;;;;;;;0.70;0.70;;;15.50;99.90;;;;;;5071751;28;20196;-70
2023/09/09 05:08:26;;;;;;;1.52;0.70;;;15.50;99.90;;;;;;5071428;28;20199;-71
2023/09/09 05:10:52;;;;;;;0.43;0.43;;;15.40;99.90;;;;;;5071792;28;20246;-71
2023/09/09 05:13:17;;;;;;;2.63;1.73;;;15.40;99.90;;;;;;5071560;28;20219;-71
2023/09/09 05:15:43;;;;;;;0.75;0.50;;;15.40;99.90;;;;;;5072646;28;20288;-72
2023/09/09 05:18:09;;;;;;;3.40;1.00;;;15.40;99.90;;;;;;5075280;28;20622;-72
2023/09/09 05:20:34;;;;;;;0.40;0.40;;;15.40;99.90;;;;;;5075154;28;20216;-72
2023/09/09 05:23:00;;;;;;;0.50;0.50;;;15.40;99.90;;;;;;5075486;28;20180;-72
2023/09/09 05:25:26;;;;;;;1.25;0.85;;;15.40;99.90;;;;;;5075013;28;20220;-71
2023/09/09 05:27:52;;;;;;;0.85;0.68;;;15.40;99.90;;;;;;5075063;28;20203;-70
2023/09/09 05:30:17;;;;;;;0.50;0.50;;;15.40;99.90;;;;;;5075124;28;20189;-71
2023/09/09 05:32:46;;;;;;;1.23;1.02;;;15.50;99.90;;;;;;5060849;28;20276;-73
2023/09/09 05:35:12;;;;;;;1.27;1.17;;;15.60;99.90;;;;;;5055171;28;20200;-70
2023/09/09 05:37:40;;;;;;;1.42;0.65;;;15.70;99.90;;;;;;5054982;28;20264;-75
2023/09/09 05:40:06;;;;;;;0.73;0.73;;;15.70;99.90;;;;;;5054925;28;20676;-75
2023/09/09 05:42:32;;;;;;;1.75;1.50;;;15.80;99.90;;;;;;5054970;28;20189;-75
2023/09/09 05:44:57;;;;;;;0.82;0.82;;;15.80;99.90;;;;;;5037252;28;20416;-74
2023/09/09 05:47:23;;;;;;;1.00;1.00;;;15.90;99.90;;;;;;5054899;28;20228;-75
2023/09/09 05:49:49;;;;;;;1.77;0.88;;;16.00;99.90;;;;;;5054756;28;20212;-74
2023/09/09 05:52:14;;;;;;;1.50;1.02;;;15.90;99.90;;;;;;5073447;28;20252;-75
2023/09/09 05:54:41;;;;;;;1.33;0.82;;;16.00;99.90;;;;;;5074748;28;20193;-75
2023/09/09 05:57:07;;;;;;;0.95;0.82;;;16.10;99.90;;;;;;5074319;28;20189;-75
2023/09/09 05:59:33;;;;;;;0.68;0.63;;;16.10;99.90;;;;;;5074495;28;20211;-75
2023/09/09 06:01:59;;;;;;;1.05;0.98;;;16.20;99.90;;;;;;5074637;28;20205;-74
2023/09/09 06:04:24;;;;;;;0.65;0.65;;;16.20;99.90;;;;;;5074224;28;20225;-75
2023/09/09 06:06:50;;;;;;;0.60;0.60;;;16.20;99.90;;;;;;5074643;28;20246;-75
2023/09/09 06:09:16;;;;;;;2.10;1.15;;;16.20;99.90;;;;;;5074452;28;20200;-75
2023/09/09 06:11:41;;;;;;;0.70;0.63;;;16.10;99.90;;;;;;5074491;28;20606;-75
2023/09/09 06:14:09;;;;;;;0.73;0.73;;;16.20;99.90;;;;;;5074522;28;20613;-74
2023/09/09 06:16:35;;;;;;;1.33;1.23;;;16.30;99.90;;;;;;5056221;28;20686;-74
2023/09/09 06:19:01;;;;;;;0.70;0.70;;;16.20;99.90;;;;;;5074431;28;20239;-75
2023/09/09 06:21:27;;;;;;;1.13;0.93;;;16.20;99.90;;;;;;5074251;28;20193;-75
2023/09/09 06:23:53;;;;;;;0.88;0.88;;;16.20;99.90;;;;;;5073821;28;20189;-75
2023/09/09 06:26:18;;;;;;;0.60;0.55;;;16.20;99.90;;;;;;5074152;28;20262;-75
2023/09/09 06:28:44;;;;;;;1.17;1.13;;;16.20;99.90;;;;;;5073155;28;20204;-75
2023/09/09 06:31:10;;;;;;;0.80;0.75;;;16.20;99.90;;;;;;5074103;28;20667;-75
2023/09/09 06:33:36;;;;;;;1.23;1.15;;;16.20;99.90;;;;;;5073922;28;20193;-75
2023/09/09 06:36:02;;;;;;;4.05;0.93;;;16.30;99.90;;;;;;5074086;28;20551;-75
2023/09/09 06:38:27;;;;;;;0.73;0.73;;;16.30;99.90;;;;;;5073812;28;20259;-75
2023/09/09 06:40:53;;;;;;;0.55;0.55;;;16.30;99.90;;;;;;5073935;28;20189;-75
2023/09/09 06:43:20;;;;;;;0.35;0.35;;;16.30;99.90;;;;;;5073668;28;20560;-75
2023/09/09 06:45:47;;;;;;;0.73;0.73;;;16.40;99.90;;;;;;5073741;28;20245;-74
2023/09/09 06:48:16;;;;;;;0.82;0.82;;;16.40;99.90;;;;;;5073762;28;20197;-75
2023/09/09 06:50:44;;;;;;;2.28;1.60;;;16.50;99.90;;;;;;5054990;28;20207;-75
2023/09/09 06:53:10;;;;;;;0.73;0.73;;;16.50;99.90;;;;;;5073468;28;20651;-75
2023/09/09 06:55:35;;;;;;;1.05;0.98;;;16.50;99.90;;;;;;5073710;28;20189;-75
2023/09/09 06:58:02;;;;;;;1.67;1.58;;;16.50;99.90;;;;;;5073342;28;20284;-75
2023/09/09 07:00:27;;;;;;;0.82;0.82;;;16.50;99.90;;;;;;5073460;28;20177;-75
2023/09/09 07:02:53;;;;;;;0.77;0.70;;;16.50;99.90;;;;;;5073398;28;20181;-75
2023/09/09 07:05:19;;;;;;;0.80;0.80;;;16.50;99.90;;;;;;5073180;28;20221;-75
2023/09/09 07:07:46;;;;;;;1.27;1.13;;;16.50;99.90;;;;;;5073715;28;20227;-75
2023/09/09 07:10:12;;;;;;;0.75;0.75;;;16.50;99.90;;;;;;5073266;28;20188;-76
2023/09/09 07:12:38;;;;;;;0.68;0.60;;;16.50;99.90;;;;;;5073208;28;20201;-77
2023/09/09 07:15:04;;;;;;;0.88;0.82;;;16.50;99.90;;;;;;5073357;28;20564;-76
2023/09/09 07:17:30;;;;;;;0.95;0.95;;;16.60;99.90;;;;;;5072935;28;20311;-76
2023/09/09 07:19:56;;;;;;;0.95;0.80;;;16.70;99.90;;;;;;5072782;28;20204;-76
2023/09/09 07:22:21;;;;;;;1.30;1.20;;;16.80;99.90;;;;;;5072897;28;20200;-74
2023/09/09 07:24:47;;;;;;;0.68;0.68;;;16.80;99.90;;;;;;5072766;28;20200;-75
2023/09/09 07:27:13;;;;;;;1.05;1.05;;;16.80;99.90;;;;;;5073003;28;20185;-76
2023/09/09 07:29:38;;;;;;;0.60;0.60;;;16.80;99.90;;;;;;5072678;28;20201;-74
2023/09/09 07:32:04;;;;;;;1.25;1.15;;;16.80;99.90;;;;;;5072134;28;20189;-73
2023/09/09 07:34:30;;;;;;;0.75;0.75;;;16.90;99.90;;;;;;5072678;28;20230;-74
2023/09/09 07:36:56;;;;;;;1.00;0.90;;;16.90;99.90;;;;;;5072880;28;20199;-75
2023/09/09 07:39:21;;;;;;;1.20;1.10;;;17.10;99.90;;;;;;5072225;28;20300;-76
2023/09/09 07:41:47;;;;;;;8.52;1.55;;;17.10;99.90;;;;;;5072761;28;20189;-76
2023/09/09 07:44:13;;;;;;;1.13;0.68;;;17.10;99.90;;;;;;5072692;28;20197;-76
2023/09/09 07:46:38;;;;;;;1.25;1.15;;;17.10;99.90;;;;;;5072509;28;20232;-76
2023/09/09 07:49:04;;;;;;;1.17;1.13;;;17.20;99.90;;;;;;5054430;28;20204;-75
2023/09/09 07:51:30;;;;;;;0.90;0.80;;;17.20;99.90;;;;;;5054551;28;20207;-74
2023/09/09 07:53:55;;;;;;;2.10;0.93;;;17.30;99.90;;;;;;5072551;28;20189;-75
2023/09/09 07:56:24;;;;;;;1.17;0.98;;;17.40;99.90;;;;;;5072331;28;20216;-75
2023/09/09 07:58:50;;;;;;;0.70;0.60;;;17.50;99.90;;;;;;5072498;28;20205;-75
2023/09/09 08:01:16;;;;;;;3.40;0.95;;;17.40;99.90;;;;;;5054502;28;20199;-75
2023/09/09 08:03:41;;;;;;;0.63;0.63;;;17.50;99.90;;;;;;5072021;28;20612;-76
2023/09/09 08:06:07;;;;;;;1.48;1.13;;;17.50;99.90;;;;;;5072561;28;20254;-76
2023/09/09 08:08:35;;;;;;;1.20;1.10;;;17.50;99.90;;;;;;5072220;28;20193;-76
2023/09/09 08:11:04;;;;;;;0.55;0.55;;;17.60;99.90;;;;;;5072128;28;20242;-75
2023/09/09 08:13:31;;;;;;;0.63;0.63;;;17.60;99.90;;;;;;5072048;28;20188;-74
2023/09/09 08:15:58;;;;;;;1.23;1.05;;;17.60;99.90;;;;;;5072358;28;20203;-73
2023/09/09 08:18:24;;;;;;;0.55;0.55;;;17.70;99.90;;;;;;5071731;28;20204;-73
2023/09/09 08:20:53;;;;;;;0.55;0.55;;;17.70;99.90;;;;;;5072266;28;20563;-73
2023/09/09 08:23:19;;;;;;;0.52;0.47;;;17.80;99.90;;;;;;5071839;28;20216;-73
2023/09/09 08:25:45;;;;;;;1.30;1.20;;;17.80;99.90;;;;;;5071984;28;20235;-73
2023/09/09 08:28:10;;;;;;;0.73;0.73;;;17.90;99.90;;;;;;5072009;28;20193;-73
2023/09/09 08:30:36;;;;;;;0.98;0.88;;;17.90;99.90;;;;;;5054136;28;20208;-74
2023/09/09 08:33:02;;;;;;;0.68;0.68;;;18.00;99.90;;;;;;5072031;28;20319;-74
2023/09/09 08:35:31;;;;;;;2.53;1.25;;;18.10;99.90;;;;;;5071599;28;20196;-73
2023/09/09 08:38:00;;;;;;;1.83;1.17;;;18.10;99.90;;;;;;5072233;28;20189;-74
2023/09/09 08:40:26;;;;;;;1.80;1.00;;;18.10;99.90;;;;;;5071757;28;20203;-73
2023/09/09 08:43:15;;;;;;;1.02;1.02;;;18.20;99.90;;;;;;5053754;28;20699;-74
2023/09/09 08:45:44;;;;;;;0.80;0.80;;;18.30;99.90;;;;;;5071568;28;20219;-74
2023/09/09 08:48:15;;;;;;;2.00;1.55;;;18.30;99.90;;;;;;5071737;28;20698;-74
2023/09/09 08:50:41;;;;;;;0.63;0.63;;;18.30;99.90;;;;;;5054853;28;20192;-74
2023/09/09 08:53:12;;;;;;;0.77;0.70;;;18.30;99.90;;;;;;5075987;28;20203;-74
2023/09/09 08:55:39;;;;;;;0.70;0.70;;;18.40;99.90;;;;;;5075986;28;20277;-74
2023/09/09 08:58:08;;;;;;;0.75;0.75;;;18.90;99.90;;;;;;5075624;28;20645;-74
2023/09/09 09:00:35;;;;;;;0.70;0.70;;;19.50;99.90;;;;;;5075924;28;20238;-73
2023/09/09 09:03:02;;;;;;;1.30;0.98;;;19.90;99.90;;;;;;5075803;28;20199;-74
2023/09/09 09:05:33;;;;;;;2.45;1.02;;;20.40;99.90;;;;;;5089281;28;20317;-75
2023/09/09 09:08:00;;;;;;;1.58;1.45;;;20.70;99.90;;;;;;5096473;28;20669;-74
2023/09/09 09:10:26;;;;;;;1.38;0.82;;;20.90;99.90;;;;;;5095825;28;20635;-73
2023/09/09 09:12:52;;;;;;;1.10;1.00;;;20.90;99.90;;;;;;5091231;28;20291;-74
2023/09/09 09:15:19;;;;;;;0.70;0.63;;;20.90;99.90;;;;;;5075588;28;20271;-73
2023/09/09 09:17:44;;;;;;;1.63;1.30;;;20.80;99.90;;;;;;5075447;28;20626;-74
2023/09/09 09:20:27;;;;;;;1.05;0.98;;;20.70;99.90;;;;;;5057268;28;20300;-73
2023/09/09 09:23:00;;;;;;;1.63;1.40;;;20.70;99.90;;;;;;5075340;28;20193;-73
2023/09/09 09:25:27;;;;;;;1.05;0.95;;;20.70;99.90;;;;;;5057010;28;20536;-73
2023/09/09 09:27:58;;;;;;;1.35;0.98;;;20.80;99.90;;;;;;5075360;28;20195;-73
2023/09/09 09:30:29;;;;;;;0.63;0.63;;;20.90;99.90;;;;;;5057078;28;20197;-72
2023/09/09 09:32:56;;;;;;;0.80;0.80;;;21.30;99.90;;;;;;5074911;28;20201;-72
2023/09/09 09:35:29;;;;;;;1.73;1.30;;;21.90;99.90;;;;;;5074979;28;20216;-73
2023/09/09 09:38:05;;;;;;;1.25;0.43;;;21.80;99.90;;;;;;5075013;28;20193;-73
2023/09/09 09:40:31;;;;;;;0.73;0.73;;;21.70;99.90;;;;;;5057317;28;20193;-72
2023/09/09 09:42:57;;;;;;;1.92;1.02;;;21.70;99.90;;;;;;5074964;28;20251;-73
2023/09/09 09:45:27;;;;;;;1.00;0.90;;;21.90;99.90;;;;;;5074664;28;20193;-72
2023/09/09 09:47:54;;;;;;;1.33;1.23;;;22.00;99.90;;;;;;5074882;28;20675;-72
2023/09/09 09:50:28;;;;;;;1.85;1.30;;;21.90;99.90;;;;;;5074703;28;20185;-73
2023/09/09 09:53:04;;;;;;;1.15;1.05;;;21.50;99.90;;;;;;5074151;28;20640;-73
2023/09/09 09:55:31;;;;;;;2.42;1.30;;;21.20;99.90;;;;;;5074718;28;20189;-71
2023/09/09 09:57:59;;;;;;;0.93;0.93;;;21.20;99.90;;;;;;5056493;28;20655;-72
2023/09/09 10:00:26;;;;;;;1.95;0.98;;;21.50;99.90;;;;;;5074440;28;20192;-72
2023/09/09 10:02:56;;;;;;;1.25;1.15;;;21.50;99.90;;;;;;5074585;28;20209;-73
2023/09/09 10:05:26;;;;;;;0.70;0.70;;;21.70;99.90;;;;;;5074139;28;20738;-73
2023/09/09 10:08:02;;;;;;;0.98;0.93;;;22.40;99.90;;;;;;5074466;28;20197;-74
2023/09/09 10:10:31;;;;;;;2.40;1.50;;;23.20;99.90;;;;;;5055989;28;20679;-73
2023/09/09 10:13:30;;;;;;;1.23;0.90;;;23.50;99.90;;;;;;5056664;28;20231;-73
2023/09/09 10:15:57;;;;;;;0.85;0.82;;;23.70;99.90;;;;;;5056552;28;20283;-73
2023/09/09 10:18:25;;;;;;;0.73;0.70;;;23.90;99.90;;;;;;5074243;28;20345;-74
2023/09/09 10:20:53;;;;;;;0.90;0.90;;;24.00;99.90;;;;;;5074442;28;20185;-75
2023/09/09 10:23:21;;;;;;;0.95;0.90;;;24.10;99.90;;;;;;5074234;28;20193;-74
2023/09/09 10:25:50;;;;;;;0.43;0.43;;;24.20;99.90;;;;;;5073818;28;20197;-74
2023/09/09 10:28:19;;;;;;;1.17;1.02;;;23.90;99.90;;;;;;5074085;28;20586;-74
2023/09/09 10:30:47;;;;;;;0.65;0.65;;;23.60;99.90;;;;;;5074266;28;20189;-75
2023/09/09 10:33:14;;;;;;;0.70;0.70;;;23.50;99.90;;;;;;5073974;28;20548;-73
2023/09/09 10:35:51;;;;;;;0.85;0.70;;;23.50;99.90;;;;;;5074023;28;20196;-74
2023/09/09 10:38:18;;;;;;;0.88;0.88;;;23.70;99.90;;;;;;5073810;28;20206;-73
2023/09/09 10:40:48;;;;;;;0.82;0.82;;;23.90;99.90;;;;;;5073970;28;20181;-73
2023/09/09 10:43:14;;;;;;;5.70;1.15;;;24.20;99.90;;;;;;5073632;28;20659;-73
2023/09/09 10:45:43;;;;;;;1.33;1.13;;;24.50;99.90;;;;;;5073689;28;20276;-73
2023/09/09 10:48:12;;;;;;;2.30;1.02;;;24.60;99.90;;;;;;5073927;28;20238;-73
2023/09/09 10:50:52;;;;;;;1.83;1.02;;;24.50;99.90;;;;;;5073728;28;20185;-73
2023/09/09 10:53:31;;;;;;;1.27;1.17;;;24.70;99.90;;;;;;5073525;28;20177;-72
2023/09/09 10:55:58;;;;;;;1.42;0.98;;;25.10;99.90;;;;;;5073833;28;20215;-73
2023/09/09 10:58:35;;;;;;;0.98;0.85;;;25.50;99.90;;;;;;5073249;28;20695;-73
2023/09/09 11:01:02;;;;;;;0.52;0.50;;;26.00;99.90;;;;;;5073606;28;20196;-73
2023/09/09 11:03:36;;;;;;;2.20;1.00;;;26.20;99.90;;;;;;5073218;28;20184;-73
2023/09/09 11:06:05;;;;;;;1.33;1.00;;;26.30;99.90;;;;;;5073308;28;20251;-73
2023/09/09 11:08:48;;;;;;;1.30;0.98;;;26.00;99.90;;;;;;5073372;28;20820;-73
2023/09/09 11:11:23;;;;;;;0.75;0.75;;;25.90;99.90;;;;;;5055399;28;20193;-72
2023/09/09 11:13:57;;;;;;;1.17;1.05;;;25.90;99.90;;;;;;5072865;28;20188;-71
2023/09/09 11:16:34;;;;;;;2.25;0.90;;;25.90;99.90;;;;;;5073172;28;20674;-72
2023/09/09 11:19:22;;;;;;;1.55;1.00;;;26.10;99.90;;;;;;5073245;28;20208;-72
2023/09/09 11:21:50;;;;;;;1.55;0.73;;;26.00;99.90;;;;;;5072448;28;20196;-71
2023/09/09 11:24:17;;;;;;;0.40;0.40;;;26.20;99.90;;;;;;5054725;28;20595;-71
2023/09/09 11:26:47;;;;;;;0.88;0.88;;;26.30;99.90;;;;;;5072959;28;20203;-73
2023/09/09 11:29:14;;;;;;;1.15;1.02;;;26.40;99.90;;;;;;5073047;28;20571;-70
2023/09/09 11:31:40;;;;;;;0.80;0.70;;;26.10;99.90;;;;;;5072838;28;20223;-69
2023/09/09 11:34:06;;;;;;;1.42;0.77;;;25.90;99.90;;;;;;5072783;28;20273;-70
2023/09/09 11:36:32;;;;;;;1.35;0.63;;;25.50;99.90;;;;;;5054872;28;20197;-72
2023/09/09 11:39:03;;;;;;;1.15;1.05;;;25.50;99.90;;;;;;5072816;28;20684;-70
2023/09/09 11:41:31;;;;;;;0.47;0.47;;;25.60;99.90;;;;;;5072863;28;20216;-71
2023/09/09 11:44:04;;;;;;;0.90;0.73;;;25.80;99.90;;;;;;5072851;28;20185;-72
2023/09/09 11:46:36;;;;;;;1.08;0.90;;;25.80;99.90;;;;;;5054812;28;20220;-71
2023/09/09 11:49:02;;;;;;;1.38;0.85;;;25.90;99.90;;;;;;5072624;28;20185;-72
2023/09/09 11:51:28;;;;;;;2.45;1.15;;;26.00;99.90;;;;;;5072475;28;20192;-71
2023/09/09 11:53:54;;;;;;;0.73;0.73;;;25.90;99.90;;;;;;5083648;28;20208;-72
2023/09/09 11:56:20;;;;;;;0.52;0.52;;;25.80;99.90;;;;;;5074433;28;20196;-72
2023/09/09 11:58:47;;;;;;;0.75;0.75;;;25.80;99.90;;;;;;5092736;28;20204;-72
2023/09/09 12:01:15;;;;;;;1.30;0.98;;;25.90;99.90;;;;;;5091394;28;20195;-73
2023/09/09 12:03:42;;;;;;;1.08;1.00;;;26.10;99.90;;;;;;5054142;28;20229;-73
2023/09/09 12:06:10;;;;;;;0.95;0.70;;;26.20;99.90;;;;;;5054440;28;20413;-73
2023/09/09 12:08:36;;;;;;;1.15;0.73;;;26.30;99.90;;;;;;5072222;28;20201;-70
2023/09/09 12:11:05;;;;;;;1.30;1.10;;;26.10;99.90;;;;;;5072369;28;20192;-70
2023/09/09 12:13:31;;;;;;;1.90;1.27;;;25.90;99.90;;;;;;5053998;28;20193;-70
2023/09/09 12:15:57;;;;;;;0.75;0.75;;;25.70;99.90;;;;;;5072293;28;20246;-71
2023/09/09 12:18:23;;;;;;;1.13;1.02;;;25.60;99.90;;;;;;5071945;28;20203;-71
2023/09/09 12:21:06;;;;;;;1.58;1.05;;;25.60;99.90;;;;;;5072139;28;20192;-71
2023/09/09 12:23:35;;;;;;;0.47;0.43;;;25.50;99.90;;;;;;5072016;28;20263;-72
2023/09/09 12:26:17;;;;;;;4.22;0.90;;;25.30;99.90;;;;;;5070883;28;20712;-71
2023/09/09 12:28:46;;;;;;;1.08;0.93;;;25.10;99.90;;;;;;5071960;28;20192;-71
2023/09/09 12:31:12;;;;;;;1.55;1.15;;;25.10;99.90;;;;;;5071988;28;20200;-70
2023/09/09 12:33:43;;;;;;;4.78;1.17;;;24.90;99.90;;;;;;5071860;28;20197;-71
2023/09/09 12:36:19;;;;;;;1.98;1.25;;;24.80;99.90;;;;;;5071891;28;20188;-71
2023/09/09 12:38:47;;;;;;;1.08;0.80;;;24.90;99.90;;;;;;5072017;28;20236;-72
2023/09/09 12:41:18;;;;;;;3.75;1.73;;;25.00;99.90;;;;;;5053979;28;20193;-71
2023/09/09 12:43:45;;;;;;;1.58;1.10;;;24.90;99.90;;;;;;5071997;28;20193;-71
2023/09/09 12:46:26;;;;;;;2.65;1.40;;;24.70;99.90;;;;;;5071832;28;20284;-71
2023/09/09 12:48:57;;;;;;;2.38;1.63;;;24.50;99.90;;;;;;5054232;28;20203;-71